EST,Max TemperatureF,Mean TemperatureF,Min TemperatureF,Max Dew PointF,MeanDew PointF,Min DewpointF,Max Humidity, Mean Humidity, Min Humidity, Max Sea Level PressureIn, Mean Sea Level PressureIn, Min Sea Level PressureIn, Max VisibilityMiles, Mean VisibilityMiles, Min VisibilityMiles, Max Wind SpeedMPH, Mean Wind SpeedMPH, Max Gust SpeedMPH,PrecipitationIn, CloudCover, Events, WindDirDegrees
2012-2-1,71,54,37,55,44,32,94,65,41,30.32,30.23,30.12,10,10,9,14,3,21,0.00,0,,219
2012-2-2,71,62,53,57,51,37,100,72,38,30.26,30.13,30.06,10,9,4,14,5,16,0.00,4,Rain,285
2012-2-3,60,51,42,37,33,32,71,50,34,30.48,30.41,30.32,10,10,10,13,7,17,0.00,0,,64
2012-2-4,69,56,42,57,47,36,100,76,60,30.38,30.22,30.06,10,10,7,10,1,,0.00,5,,197
2012-2-5,73,62,51,55,53,46,100,80,47,30.13,30.01,29.97,10,10,7,18,3,25,0.00,5,,307
2012-2-6,46,44,41,39,36,32,81,72,57,30.29,30.23,30.17,10,10,10,12,7,,0.00,7,,42
2012-2-7,57,45,33,39,32,23,100,65,27,30.21,30.17,30.13,10,9,5,14,3,,0.00,1,,6
2012-2-8,59,46,32,41,34,30,93,75,41,30.20,30.15,30.09,10,10,9,10,1,,0.00,1,Rain,350
2012-2-9,51,40,30,34,31,28,93,70,44,30.33,30.25,30.20,10,10,9,12,3,,0.00,0,,28
2012-2-10,53,42,30,43,35,28,93,81,58,30.23,30.11,29.94,10,8,2,6,0,,0.00,2,,338
2012-2-11,51,40,30,43,27,3,100,59,27,30.12,29.88,29.79,10,9,6,28,7,36,0.00,3,Rain,295
2012-2-12,44,34,23,14,8,5,54,36,23,30.33,30.26,30.18,10,10,10,15,10,25,0.00,0,,297
2012-2-13,53,36,19,21,16,10,86,49,20,30.32,30.24,30.15,10,10,10,8,1,,0.00,0,,175
2012-2-14,55,47,39,45,35,27,81,62,41,30.16,30.10,30.05,10,10,5,12,3,,0.01,6,Rain,226
2012-2-15,66,50,35,43,38,34,100,64,30,30.27,30.20,30.12,10,9,1,10,3,,0.00,1,,63
2012-2-16,59,52,44,59,49,41,100,90,76,30.27,30.15,30.02,10,6,1,7,2,,0.13,6,Rain,86
2012-2-17,62,53,44,52,46,43,100,79,48,30.15,30.09,30.06,10,8,0,9,3,,0.00,3,Fog,353
2012-2-18,66,52,39,52,40,36,100,64,32,30.13,30.06,29.97,10,10,3,10,2,,0.05,0,Rain,95
2012-2-19,53,45,37,54,46,34,100,96,87,29.96,29.82,29.67,10,4,1,17,7,28,1.77,8,Rain,34
2012-2-20,53,42,32,36,31,28,100,71,38,30.30,30.17,29.96,10,10,10,13,6,18,0.00,1,,3
2012-2-21,60,46,32,45,36,30,93,72,50,30.34,30.22,30.06,10,10,10,10,3,,0.00,2,,170
2012-2-22,69,56,42,52,47,43,100,80,46,30.05,29.99,29.88,10,10,7,16,7,21,0.00,0,,225
2012-2-23,78,74,69,63,56,52,73,52,39,29.74,29.68,29.65,10,10,10,21,13,29,0.00,2,,221
2012-2-24,73,65,57,66,61,45,100,82,63,29.84,29.70,29.64,10,8,0,22,12,30,1.82,4,Rain-Thunderstorm,231
2012-2-25,55,46,37,32,25,19,81,45,25,30.31,30.15,29.93,10,10,10,20,10,28,0.00,0,,276
2012-2-26,55,44,32,30,25,19,87,52,28,30.53,30.45,30.34,10,10,10,12,5,16,0.00,0,,90
2012-2-27,51,46,42,52,45,32,100,88,61,30.45,30.40,30.34,10,6,0,7,2,,0.32,8,Rain,24
2012-2-28,68,58,48,52,46,39,100,73,37,30.43,30.37,30.32,10,6,0,8,4,,0.00,3,Fog,68
2012-2-29,73,63,53,61,55,43,94,80,63,30.30,30.14,29.95,10,9,5,17,3,23,0.00,5,,212